sensor_id;sensor_type;location;lat;lon;timestamp;pressure;altitude;pressure_sealevel;temperature;humidity
60715;BME280;46564;53.096;8.246;2023-02-12T00:02:17;103496.78;;;6.08;nan
60715;BME280;46564;53.096;8.246;2023-02-12T00:07:19;103495.50;;;6.03;nan
60715;BME280;46564;53.096;8.246;2023-02-12T00:12:21;103503.31;;;6.03;nan
60715;BME280;46564;53.096;8.246;2023-02-12T00:17:23;103501.13;;;5.97;nan
60715;BME280;46564;53.096;8.246;2023-02-12T00:22:24;103501.91;;;5.96;nan
60715;BME280;46564;53.096;8.246;2023-02-12T00:27:26;103505.94;;;5.93;nan
60715;BME280;46564;53.096;8.246;2023-02-12T00:32:28;103510.88;;;5.90;nan
60715;BME280;46564;53.096;8.246;2023-02-12T00:37:31;103522.88;;;5.88;nan
60715;BME280;46564;53.096;8.246;2023-02-12T00:42:33;103517.56;;;5.86;nan
60715;BME280;46564;53.096;8.246;2023-02-12T00:47:35;103519.50;;;5.89;nan
60715;BME280;46564;53.096;8.246;2023-02-12T00:52:37;103516.66;;;5.86;nan
60715;BME280;46564;53.096;8.246;2023-02-12T00:57:38;103517.44;;;5.84;nan
60715;BME280;46564;53.096;8.246;2023-02-12T01:02:40;103517.56;;;5.86;nan
60715;BME280;46564;53.096;8.246;2023-02-12T01:07:42;103530.06;;;5.80;nan
60715;BME280;46564;53.096;8.246;2023-02-12T01:12:44;103537.75;;;5.78;nan
60715;BME280;46564;53.096;8.246;2023-02-12T01:17:46;103543.97;;;5.80;nan
60715;BME280;46564;53.096;8.246;2023-02-12T01:22:48;103542.00;;;5.78;nan
60715;BME280;46564;53.096;8.246;2023-02-12T01:27:52;103546.31;;;5.77;nan
60715;BME280;46564;53.096;8.246;2023-02-12T01:32:54;103538.91;;;5.72;nan
60715;BME280;46564;53.096;8.246;2023-02-12T01:37:56;103538.91;;;5.72;nan
60715;BME280;46564;53.096;8.246;2023-02-12T01:43:00;103553.63;;;5.71;nan
60715;BME280;46564;53.096;8.246;2023-02-12T01:48:03;103540.50;;;5.70;nan
60715;BME280;46564;53.096;8.246;2023-02-12T01:53:05;103534.53;;;5.71;nan
60715;BME280;46564;53.096;8.246;2023-02-12T01:58:07;103531.81;;;5.69;nan
60715;BME280;46564;53.096;8.246;2023-02-12T02:03:10;103530.22;;;5.71;nan
60715;BME280;46564;53.096;8.246;2023-02-12T02:08:12;103531.94;;;5.71;nan
60715;BME280;46564;53.096;8.246;2023-02-12T02:13:14;103532.81;;;5.71;nan
60715;BME280;46564;53.096;8.246;2023-02-12T02:18:37;103533.84;;;5.73;nan
60715;BME280;46564;53.096;8.246;2023-02-12T02:23:54;103527.75;;;5.73;nan
60715;BME280;46564;53.096;8.246;2023-02-12T02:34:59;103528.41;;;5.70;nan
60715;BME280;46564;53.096;8.246;2023-02-12T02:45:21;103519.56;;;5.68;nan
60715;BME280;46564;53.096;8.246;2023-02-12T02:50:28;103519.56;;;5.68;nan
60715;BME280;46564;53.096;8.246;2023-02-12T02:55:36;103510.75;;;5.66;nan
60715;BME280;46564;53.096;8.246;2023-02-12T03:00:47;103510.75;;;5.66;nan
60715;BME280;46564;53.096;8.246;2023-02-12T03:05:53;103516.84;;;5.66;nan
60715;BME280;46564;53.096;8.246;2023-02-12T03:11:11;103509.31;;;5.70;nan
60715;BME280;46564;53.096;8.246;2023-02-12T03:16:22;103519.81;;;5.71;nan
60715;BME280;46564;53.096;8.246;2023-02-12T03:21:31;103518.13;;;5.72;nan
60715;BME280;46564;53.096;8.246;2023-02-12T03:26:42;103521.66;;;5.72;nan
60715;BME280;46564;53.096;8.246;2023-02-12T03:31:57;103515.16;;;5.67;nan
60715;BME280;46564;53.096;8.246;2023-02-12T03:37:28;103512.69;;;5.69;nan
60715;BME280;46564;53.096;8.246;2023-02-12T03:42:33;103518.00;;;5.70;nan
60715;BME280;46564;53.096;8.246;2023-02-12T03:47:49;103518.00;;;5.70;nan
60715;BME280;46564;53.096;8.246;2023-02-12T03:52:52;103518.13;;;5.72;nan
60715;BME280;46564;53.096;8.246;2023-02-12T03:57:58;103528.41;;;5.70;nan
60715;BME280;46564;53.096;8.246;2023-02-12T04:03:03;103522.94;;;5.67;nan
60715;BME280;46564;53.096;8.246;2023-02-12T04:08:07;103524.13;;;5.71;nan
60715;BME280;46564;53.096;8.246;2023-02-12T04:18:24;103520.34;;;5.67;nan
60715;BME280;46564;53.096;8.246;2023-02-12T04:28:55;103530.75;;;5.67;nan
60715;BME280;46564;53.096;8.246;2023-02-12T04:39:29;103541.97;;;5.66;nan
60715;BME280;46564;53.096;8.246;2023-02-12T04:44:35;103538.56;;;5.67;nan
60715;BME280;46564;53.096;8.246;2023-02-12T04:49:37;103538.56;;;5.67;nan
60715;BME280;46564;53.096;8.246;2023-02-12T04:54:40;103547.16;;;5.66;nan
60715;BME280;46564;53.096;8.246;2023-02-12T04:59:41;103545.31;;;5.65;nan
60715;BME280;46564;53.096;8.246;2023-02-12T05:04:43;103547.16;;;5.66;nan
60715;BME280;46564;53.096;8.246;2023-02-12T05:09:44;103552.88;;;5.62;nan
60715;BME280;46564;53.096;8.246;2023-02-12T05:14:46;103548.44;;;5.61;nan
60715;BME280;46564;53.096;8.246;2023-02-12T05:19:48;103549.34;;;5.61;nan
60715;BME280;46564;53.096;8.246;2023-02-12T05:24:49;103538.06;;;5.61;nan
60715;BME280;46564;53.096;8.246;2023-02-12T05:29:51;103546.63;;;5.60;nan
60715;BME280;46564;53.096;8.246;2023-02-12T05:34:53;103543.25;;;5.61;nan
60715;BME280;46564;53.096;8.246;2023-02-12T05:39:55;103548.19;;;5.58;nan
60715;BME280;46564;53.096;8.246;2023-02-12T05:44:57;103548.97;;;5.57;nan
60715;BME280;46564;53.096;8.246;2023-02-12T05:49:58;103550.56;;;5.55;nan
60715;BME280;46564;53.096;8.246;2023-02-12T05:55:00;103548.97;;;5.57;nan
60715;BME280;46564;53.096;8.246;2023-02-12T06:00:03;103559.38;;;5.57;nan
60715;BME280;46564;53.096;8.246;2023-02-12T06:05:12;103561.72;;;5.54;nan
60715;BME280;46564;53.096;8.246;2023-02-12T06:10:14;103560.81;;;5.53;nan
60715;BME280;46564;53.096;8.246;2023-02-12T06:15:15;103567.72;;;5.53;nan
60715;BME280;46564;53.096;8.246;2023-02-12T06:20:17;103563.53;;;5.55;nan
60715;BME280;46564;53.096;8.246;2023-02-12T06:25:19;103563.53;;;5.55;nan
60715;BME280;46564;53.096;8.246;2023-02-12T06:30:21;103580.03;;;5.55;nan
60715;BME280;46564;53.096;8.246;2023-02-12T06:35:22;103577.56;;;5.57;nan
60715;BME280;46564;53.096;8.246;2023-02-12T06:40:24;103593.97;;;5.56;nan
60715;BME280;46564;53.096;8.246;2023-02-12T06:45:26;103603.31;;;5.54;nan
60715;BME280;46564;53.096;8.246;2023-02-12T06:50:28;103603.44;;;5.55;nan
60715;BME280;46564;53.096;8.246;2023-02-12T06:55:31;103610.47;;;5.56;nan
60715;BME280;46564;53.096;8.246;2023-02-12T07:00:32;103615.78;;;5.58;nan
60715;BME280;46564;53.096;8.246;2023-02-12T07:05:34;103618.91;;;5.54;nan
60715;BME280;46564;53.096;8.246;2023-02-12T07:10:39;103617.09;;;5.53;nan
60715;BME280;46564;53.096;8.246;2023-02-12T07:15:41;103625.94;;;5.55;nan
60715;BME280;46564;53.096;8.246;2023-02-12T07:20:43;103628.53;;;5.55;nan
60715;BME280;46564;53.096;8.246;2023-02-12T07:25:56;103623.84;;;5.61;nan
60715;BME280;46564;53.096;8.246;2023-02-12T07:30:59;103633.34;;;5.60;nan
60715;BME280;46564;53.096;8.246;2023-02-12T07:36:03;103635.00;;;5.60;nan
60715;BME280;46564;53.096;8.246;2023-02-12T07:46:19;103650.84;;;5.63;nan
60715;BME280;46564;53.096;8.246;2023-02-12T07:51:21;103649.56;;;5.68;nan
60715;BME280;46564;53.096;8.246;2023-02-12T07:56:25;103667.00;;;5.69;nan
60715;BME280;46564;53.096;8.246;2023-02-12T08:01:36;103668.78;;;5.70;nan
60715;BME280;46564;53.096;8.246;2023-02-12T08:06:40;103669.41;;;5.78;nan
60715;BME280;46564;53.096;8.246;2023-02-12T08:11:42;103666.69;;;5.76;nan
60715;BME280;46564;53.096;8.246;2023-02-12T08:16:45;103662.16;;;5.84;nan
60715;BME280;46564;53.096;8.246;2023-02-12T08:21:51;103667.84;;;5.90;nan
60715;BME280;46564;53.096;8.246;2023-02-12T08:26:53;103672.38;;;5.93;nan
60715;BME280;46564;53.096;8.246;2023-02-12T08:31:57;103672.91;;;5.99;nan
60715;BME280;46564;53.096;8.246;2023-02-12T08:37:00;103680.19;;;6.03;nan
60715;BME280;46564;53.096;8.246;2023-02-12T08:42:02;103675.94;;;6.04;nan
60715;BME280;46564;53.096;8.246;2023-02-12T08:47:04;103670.31;;;5.99;nan
60715;BME280;46564;53.096;8.246;2023-02-12T08:52:07;103678.66;;;6.05;nan
60715;BME280;46564;53.096;8.246;2023-02-12T08:57:09;103682.78;;;6.13;nan
60715;BME280;46564;53.096;8.246;2023-02-12T09:02:10;103679.88;;;6.21;nan
60715;BME280;46564;53.096;8.246;2023-02-12T09:07:12;103688.97;;;6.26;nan
60715;BME280;46564;53.096;8.246;2023-02-12T09:12:13;103693.16;;;6.24;nan
60715;BME280;46564;53.096;8.246;2023-02-12T09:17:15;103694.16;;;6.26;nan
60715;BME280;46564;53.096;8.246;2023-02-12T09:22:17;103699.88;;;6.32;nan
60715;BME280;46564;53.096;8.246;2023-02-12T09:27:18;103701.69;;;6.33;nan
60715;BME280;46564;53.096;8.246;2023-02-12T09:32:20;103698.56;;;6.37;nan
60715;BME280;46564;53.096;8.246;2023-02-12T09:37:22;103705.75;;;6.29;nan
60715;BME280;46564;53.096;8.246;2023-02-12T09:43:01;103711.59;;;6.37;nan
60715;BME280;46564;53.096;8.246;2023-02-12T09:48:14;103712.31;;;6.46;nan
60715;BME280;46564;53.096;8.246;2023-02-12T09:53:22;103712.69;;;6.51;nan
60715;BME280;46564;53.096;8.246;2023-02-12T09:58:32;103720.88;;;6.55;nan
60715;BME280;46564;53.096;8.246;2023-02-12T10:03:36;103723.72;;;6.59;nan
60715;BME280;46564;53.096;8.246;2023-02-12T10:14:17;103733.59;;;6.63;nan
60715;BME280;46564;53.096;8.246;2023-02-12T10:25:12;103742.75;;;6.58;nan
60715;BME280;46564;53.096;8.246;2023-02-12T10:30:24;103747.75;;;6.66;nan
60715;BME280;46564;53.096;8.246;2023-02-12T10:35:27;103743.72;;;6.70;nan
60715;BME280;46564;53.096;8.246;2023-02-12T10:40:31;103741.38;;;6.73;nan
60715;BME280;46564;53.096;8.246;2023-02-12T10:45:35;103743.84;;;6.71;nan
60715;BME280;46564;53.096;8.246;2023-02-12T11:01:19;103742.69;;;6.68;nan
60715;BME280;46564;53.096;8.246;2023-02-12T11:06:25;103741.16;;;6.60;nan
60715;BME280;46564;53.096;8.246;2023-02-12T11:11:29;103735.06;;;6.59;nan
60715;BME280;46564;53.096;8.246;2023-02-12T11:16:34;103735.91;;;6.70;nan
60715;BME280;46564;53.096;8.246;2023-02-12T11:21:37;103727.56;;;6.74;nan
60715;BME280;46564;53.096;8.246;2023-02-12T11:26:38;103729.97;;;6.83;nan
60715;BME280;46564;53.096;8.246;2023-02-12T11:31:40;103716.47;;;6.99;nan
60715;BME280;46564;53.096;8.246;2023-02-12T11:36:50;103715.41;;;7.19;nan
60715;BME280;46564;53.096;8.246;2023-02-12T11:41:58;103712.84;;;7.31;nan
60715;BME280;46564;53.096;8.246;2023-02-12T11:47:05;103711.78;;;7.17;nan
60715;BME280;46564;53.096;8.246;2023-02-12T11:52:18;103713.63;;;7.18;nan
60715;BME280;46564;53.096;8.246;2023-02-12T12:02:47;103706.28;;;7.24;nan
60715;BME280;46564;53.096;8.246;2023-02-12T12:07:58;103699.59;;;7.28;nan
60715;BME280;46564;53.096;8.246;2023-02-12T12:13:05;103695.44;;;7.30;nan
60715;BME280;46564;53.096;8.246;2023-02-12T12:24:13;103692.75;;;7.64;nan
60715;BME280;46564;53.096;8.246;2023-02-12T12:29:23;103699.34;;;7.58;nan
60715;BME280;46564;53.096;8.246;2023-02-12T12:34:27;103693.91;;;7.55;nan
60715;BME280;46564;53.096;8.246;2023-02-12T13:05:40;103670.66;;;7.58;nan
60715;BME280;46564;53.096;8.246;2023-02-12T13:10:56;103667.00;;;7.56;nan
60715;BME280;46564;53.096;8.246;2023-02-12T13:16:08;103657.28;;;7.66;nan
60715;BME280;46564;53.096;8.246;2023-02-12T13:31:37;103647.50;;;7.99;nan
60715;BME280;46564;53.096;8.246;2023-02-12T13:36:41;103651.28;;;8.02;nan
60715;BME280;46564;53.096;8.246;2023-02-12T13:41:51;103642.44;;;8.00;nan
60715;BME280;46564;53.096;8.246;2023-02-12T13:47:20;103645.59;;;8.08;nan
60715;BME280;46564;53.096;8.246;2023-02-12T13:52:43;103645.22;;;8.15;nan
60715;BME280;46564;53.096;8.246;2023-02-12T13:58:45;103641.84;;;8.04;nan
60715;BME280;46564;53.096;8.246;2023-02-12T14:03:40;103649.44;;;8.13;nan
60715;BME280;46564;53.096;8.246;2023-02-12T14:09:08;103647.84;;;8.15;nan
60715;BME280;46564;53.096;8.246;2023-02-12T14:14:10;103646.50;;;8.20;nan
60715;BME280;46564;53.096;8.246;2023-02-12T14:24:54;103650.81;;;8.08;nan
60715;BME280;46564;53.096;8.246;2023-02-12T14:45:35;103651.72;;;7.96;nan
60715;BME280;46564;53.096;8.246;2023-02-12T14:50:42;103653.78;;;7.89;nan
60715;BME280;46564;53.096;8.246;2023-02-12T14:55:51;103652.06;;;7.77;nan
60715;BME280;46564;53.096;8.246;2023-02-12T15:00:55;103650.59;;;7.81;nan
60715;BME280;46564;53.096;8.246;2023-02-12T15:11:43;103654.44;;;7.86;nan
60715;BME280;46564;53.096;8.246;2023-02-12T15:16:54;103644.00;;;7.86;nan
60715;BME280;46564;53.096;8.246;2023-02-12T15:22:00;103645.63;;;7.84;nan
60715;BME280;46564;53.096;8.246;2023-02-12T15:27:04;103638.34;;;7.80;nan
60715;BME280;46564;53.096;8.246;2023-02-12T15:32:08;103646.94;;;7.79;nan
60715;BME280;46564;53.096;8.246;2023-02-12T15:37:25;103644.13;;;7.76;nan
60715;BME280;46564;53.096;8.246;2023-02-12T15:42:35;103641.50;;;7.76;nan
60715;BME280;46564;53.096;8.246;2023-02-12T15:47:44;103644.13;;;7.76;nan
60715;BME280;46564;53.096;8.246;2023-02-12T15:52:47;103629.28;;;7.75;nan
60715;BME280;46564;53.096;8.246;2023-02-12T15:57:53;103632.69;;;7.74;nan
60715;BME280;46564;53.096;8.246;2023-02-12T16:02:55;103637.00;;;7.73;nan
60715;BME280;46564;53.096;8.246;2023-02-12T16:07:57;103637.44;;;7.68;nan
60715;BME280;46564;53.096;8.246;2023-02-12T16:13:01;103640.84;;;7.67;nan
60715;BME280;46564;53.096;8.246;2023-02-12T16:18:03;103642.66;;;7.68;nan
60715;BME280;46564;53.096;8.246;2023-02-12T16:23:05;103634.72;;;7.66;nan
60715;BME280;46564;53.096;8.246;2023-02-12T16:28:16;103635.38;;;7.64;nan
60715;BME280;46564;53.096;8.246;2023-02-12T16:33:40;103643.66;;;7.58;nan
60715;BME280;46564;53.096;8.246;2023-02-12T16:38:51;103641.75;;;7.55;nan
60715;BME280;46564;53.096;8.246;2023-02-12T16:48:56;103651.94;;;7.52;nan
60715;BME280;46564;53.096;8.246;2023-02-12T16:54:01;103654.31;;;7.49;nan
60715;BME280;46564;53.096;8.246;2023-02-12T16:59:03;103660.31;;;7.48;nan
60715;BME280;46564;53.096;8.246;2023-02-12T17:04:07;103663.59;;;7.46;nan
60715;BME280;46564;53.096;8.246;2023-02-12T17:09:09;103657.81;;;7.38;nan
60715;BME280;46564;53.096;8.246;2023-02-12T17:14:14;103658.47;;;7.35;nan
60715;BME280;46564;53.096;8.246;2023-02-12T17:19:16;103670.47;;;7.33;nan
60715;BME280;46564;53.096;8.246;2023-02-12T17:24:24;103681.56;;;7.31;nan
60715;BME280;46564;53.096;8.246;2023-02-12T17:29:27;103680.44;;;7.27;nan
60715;BME280;46564;53.096;8.246;2023-02-12T17:34:29;103685.44;;;7.24;nan
60715;BME280;46564;53.096;8.246;2023-02-12T17:39:43;103696.28;;;7.18;nan
60715;BME280;46564;53.096;8.246;2023-02-12T17:44:45;103696.81;;;7.14;nan
60715;BME280;46564;53.096;8.246;2023-02-12T17:49:47;103697.63;;;7.13;nan
60715;BME280;46564;53.096;8.246;2023-02-12T17:54:48;103703.25;;;7.07;nan
60715;BME280;46564;53.096;8.246;2023-02-12T17:59:50;103704.16;;;7.08;nan
60715;BME280;46564;53.096;8.246;2023-02-12T18:04:52;103705.22;;;7.10;nan
60715;BME280;46564;53.096;8.246;2023-02-12T18:09:54;103710.28;;;7.08;nan
60715;BME280;46564;53.096;8.246;2023-02-12T18:15:00;103703.16;;;7.06;nan
60715;BME280;46564;53.096;8.246;2023-02-12T18:20:02;103706.66;;;7.06;nan
60715;BME280;46564;53.096;8.246;2023-02-12T18:25:05;103712.53;;;7.04;nan
60715;BME280;46564;53.096;8.246;2023-02-12T18:30:08;103703.56;;;7.00;nan
60715;BME280;46564;53.096;8.246;2023-02-12T18:35:10;103695.50;;;6.97;nan
60715;BME280;46564;53.096;8.246;2023-02-12T18:40:12;103710.25;;;6.97;nan
60715;BME280;46564;53.096;8.246;2023-02-12T18:45:14;103704.00;;;6.95;nan
60715;BME280;46564;53.096;8.246;2023-02-12T18:50:15;103703.88;;;6.93;nan
60715;BME280;46564;53.096;8.246;2023-02-12T18:55:17;103705.22;;;6.88;nan
60715;BME280;46564;53.096;8.246;2023-02-12T19:00:19;103701.31;;;6.83;nan
60715;BME280;46564;53.096;8.246;2023-02-12T19:05:21;103692.25;;;6.78;nan
60715;BME280;46564;53.096;8.246;2023-02-12T19:10:23;103700.06;;;6.78;nan
60715;BME280;46564;53.096;8.246;2023-02-12T19:15:25;103706.28;;;6.80;nan
60715;BME280;46564;53.096;8.246;2023-02-12T19:20:26;103703.81;;;6.81;nan
60715;BME280;46564;53.096;8.246;2023-02-12T19:25:28;103719.31;;;6.80;nan
60715;BME280;46564;53.096;8.246;2023-02-12T19:30:29;103708.78;;;6.78;nan
60715;BME280;46564;53.096;8.246;2023-02-12T19:35:32;103705.38;;;6.79;nan
60715;BME280;46564;53.096;8.246;2023-02-12T19:40:33;103711.63;;;6.81;nan
60715;BME280;46564;53.096;8.246;2023-02-12T19:45:35;103699.81;;;6.75;nan
60715;BME280;46564;53.096;8.246;2023-02-12T19:50:37;103708.53;;;6.75;nan
60715;BME280;46564;53.096;8.246;2023-02-12T19:55:44;103704.13;;;6.74;nan
60715;BME280;46564;53.096;8.246;2023-02-12T20:00:46;103706.75;;;6.74;nan
60715;BME280;46564;53.096;8.246;2023-02-12T20:05:48;103713.97;;;6.78;nan
60715;BME280;46564;53.096;8.246;2023-02-12T20:10:53;103715.44;;;6.75;nan
60715;BME280;46564;53.096;8.246;2023-02-12T20:15:55;103720.00;;;6.77;nan
60715;BME280;46564;53.096;8.246;2023-02-12T20:20:57;103726.75;;;6.75;nan
60715;BME280;46564;53.096;8.246;2023-02-12T20:25:59;103723.91;;;6.72;nan
60715;BME280;46564;53.096;8.246;2023-02-12T20:31:18;103720.28;;;6.70;nan
60715;BME280;46564;53.096;8.246;2023-02-12T20:36:20;103720.16;;;6.68;nan
60715;BME280;46564;53.096;8.246;2023-02-12T20:41:23;103720.03;;;6.67;nan
60715;BME280;46564;53.096;8.246;2023-02-12T20:46:26;103719.81;;;6.64;nan
60715;BME280;46564;53.096;8.246;2023-02-12T20:51:28;103714.47;;;6.62;nan
60715;BME280;46564;53.096;8.246;2023-02-12T20:56:32;103720.47;;;6.61;nan
60715;BME280;46564;53.096;8.246;2023-02-12T21:01:36;103707.84;;;6.55;nan
60715;BME280;46564;53.096;8.246;2023-02-12T21:06:38;103705.91;;;6.53;nan
60715;BME280;46564;53.096;8.246;2023-02-12T21:11:42;103708.25;;;6.50;nan
60715;BME280;46564;53.096;8.246;2023-02-12T21:16:45;103710.09;;;6.51;nan
60715;BME280;46564;53.096;8.246;2023-02-12T21:21:47;103710.22;;;6.52;nan
60715;BME280;46564;53.096;8.246;2023-02-12T21:26:50;103708.38;;;6.51;nan
60715;BME280;46564;53.096;8.246;2023-02-12T21:31:52;103711.78;;;6.50;nan
60715;BME280;46564;53.096;8.246;2023-02-12T21:36:55;103701.13;;;6.47;nan
60715;BME280;46564;53.096;8.246;2023-02-12T21:41:59;103707.75;;;6.44;nan
60715;BME280;46564;53.096;8.246;2023-02-12T21:47:04;103698.28;;;6.44;nan
60715;BME280;46564;53.096;8.246;2023-02-12T21:52:06;103693.84;;;6.43;nan
60715;BME280;46564;53.096;8.246;2023-02-12T21:57:07;103677.47;;;6.44;nan
60715;BME280;46564;53.096;8.246;2023-02-12T22:02:09;103683.19;;;6.40;nan
60715;BME280;46564;53.096;8.246;2023-02-12T22:07:10;103678.88;;;6.41;nan
60715;BME280;46564;53.096;8.246;2023-02-12T22:12:12;103677.88;;;6.39;nan
60715;BME280;46564;53.096;8.246;2023-02-12T22:17:14;103675.03;;;6.35;nan
60715;BME280;46564;53.096;8.246;2023-02-12T22:22:15;103667.22;;;6.35;nan
60715;BME280;46564;53.096;8.246;2023-02-12T22:27:17;103670.59;;;6.34;nan
60715;BME280;46564;53.096;8.246;2023-02-12T22:32:19;103665.78;;;6.29;nan
60715;BME280;46564;53.096;8.246;2023-02-12T22:37:21;103672.56;;;6.27;nan
60715;BME280;46564;53.096;8.246;2023-02-12T22:42:22;103682.22;;;6.28;nan
60715;BME280;46564;53.096;8.246;2023-02-12T22:47:24;103683.13;;;6.28;nan
60715;BME280;46564;53.096;8.246;2023-02-12T22:52:26;103679.66;;;6.17;nan
60715;BME280;46564;53.096;8.246;2023-02-12T22:57:28;103682.25;;;6.17;nan
60715;BME280;46564;53.096;8.246;2023-02-12T23:02:31;103683.91;;;6.17;nan
60715;BME280;46564;53.096;8.246;2023-02-12T23:07:33;103689.28;;;6.18;nan
60715;BME280;46564;53.096;8.246;2023-02-12T23:12:34;103692.13;;;6.22;nan
60715;BME280;46564;53.096;8.246;2023-02-12T23:17:36;103686.94;;;6.11;nan
60715;BME280;46564;53.096;8.246;2023-02-12T23:22:37;103690.59;;;6.03;nan
60715;BME280;46564;53.096;8.246;2023-02-12T23:27:39;103685.00;;;6.09;nan
60715;BME280;46564;53.096;8.246;2023-02-12T23:32:41;103677.84;;;6.06;nan
60715;BME280;46564;53.096;8.246;2023-02-12T23:37:42;103675.81;;;6.02;nan
60715;BME280;46564;53.096;8.246;2023-02-12T23:42:44;103674.09;;;6.03;nan
60715;BME280;46564;53.096;8.246;2023-02-12T23:47:46;103681.91;;;6.03;nan
60715;BME280;46564;53.096;8.246;2023-02-12T23:52:48;103677.59;;;6.03;nan
60715;BME280;46564;53.096;8.246;2023-02-12T23:57:50;103672.28;;;6.01;nan
